Time,TemperatureF,DewpointF,PressureIn,WindDirection,WindDirectionDegrees,WindSpeedMPH,WindSpeedGustMPH,Humidity,HourlyPrecipIn,Conditions,Clouds,dailyrainin,SoftwareType,DateUTC
2013-06-02 00:02:00,71.2,64.0,29.88,WNW,293,0.0,0.0,79,0.00,,,0.00,WUHU216HW,2013-06-02 04:02:00,
2013-06-02 00:07:00,71.2,64.3,29.88,WNW,293,0.0,0.0,79,0.00,,,0.00,WUHU216HW,2013-06-02 04:07:00,
2013-06-02 00:13:00,70.8,64.0,29.87,WNW,293,0.0,0.0,79,0.00,,,0.00,WUHU216HW,2013-06-02 04:13:00,
2013-06-02 00:18:00,70.8,64.0,29.87,WNW,293,0.0,0.0,79,0.00,,,0.00,WUHU216HW,2013-06-02 04:18:00,
2013-06-02 00:23:00,70.7,64.2,29.87,WNW,293,0.0,0.0,80,0.00,,,0.00,WUHU216HW,2013-06-02 04:23:00,
2013-06-02 00:28:00,70.5,64.0,29.87,WNW,293,0.0,0.0,80,0.00,,,0.00,WUHU216HW,2013-06-02 04:28:00,
2013-06-02 00:33:00,70.5,64.0,29.87,WNW,293,0.0,0.0,80,0.00,,,0.00,WUHU216HW,2013-06-02 04:33:00,
2013-06-02 00:39:00,70.5,64.0,29.87,WNW,293,0.0,0.0,80,0.00,,,0.00,WUHU216HW,2013-06-02 04:39:00,
2013-06-02 00:44:00,70.5,64.0,29.87,WNW,293,0.0,0.0,80,0.00,,,0.00,WUHU216HW,2013-06-02 04:44:00,
2013-06-02 00:50:00,70.3,64.2,29.87,WNW,293,0.0,0.0,81,0.00,,,0.00,WUHU216HW,2013-06-02 04:50:00,
2013-06-02 00:55:00,70.3,64.2,29.87,WNW,293,0.0,0.0,81,0.00,,,0.00,WUHU216HW,2013-06-02 04:55:00,
2013-06-02 01:01:00,70.3,64.2,29.87,WNW,293,0.0,0.0,81,0.00,,,0.00,WUHU216HW,2013-06-02 05:01:00,
2013-06-02 01:06:00,70.1,64.0,29.86,WNW,293,0.0,0.0,81,0.00,,,0.00,WUHU216HW,2013-06-02 05:06:00,
2013-06-02 01:12:00,70.1,64.3,29.87,WNW,293,0.0,0.0,82,0.00,,,0.00,WUHU216HW,2013-06-02 05:12:00,
2013-06-02 01:17:00,69.9,64.1,29.87,WNW,293,0.0,0.0,82,0.00,,,0.00,WUHU216HW,2013-06-02 05:17:00,
2013-06-02 01:23:00,69.9,64.1,29.87,WNW,293,0.0,0.0,82,0.00,,,0.00,WUHU216HW,2013-06-02 05:23:00,
2013-06-02 01:28:00,69.9,64.1,29.87,WNW,293,0.0,0.0,82,0.00,,,0.00,WUHU216HW,2013-06-02 05:28:00,
2013-06-02 01:34:00,69.8,64.0,29.87,West,270,0.0,0.0,82,0.00,,,0.00,WUHU216HW,2013-06-02 05:34:00,
2013-06-02 01:39:00,69.6,63.8,29.87,West,270,0.0,0.0,82,0.00,,,0.00,WUHU216HW,2013-06-02 05:39:00,
2013-06-02 01:44:00,69.6,63.8,29.87,NW,315,0.0,0.0,82,0.00,,,0.00,WUHU216HW,2013-06-02 05:44:00,
2013-06-02 01:49:00,69.6,64.1,29.87,NW,315,0.0,0.0,83,0.00,,,0.00,WUHU216HW,2013-06-02 05:49:00,
2013-06-02 01:54:00,69.6,64.1,29.87,NW,315,0.0,0.0,83,0.00,,,0.00,WUHU216HW,2013-06-02 05:54:00,
2013-06-02 02:00:00,69.6,64.1,29.87,NW,315,0.0,0.0,83,0.00,,,0.00,WUHU216HW,2013-06-02 06:00:00,
2013-06-02 02:06:00,69.9,64.5,29.87,West,270,0.0,0.0,83,0.00,,,0.00,WUHU216HW,2013-06-02 06:06:00,
2013-06-02 02:11:00,70.1,64.7,29.87,West,270,0.0,0.0,83,0.00,,,0.00,WUHU216HW,2013-06-02 06:11:00,
2013-06-02 02:16:00,70.3,64.8,29.87,West,270,0.0,0.0,83,0.00,,,0.00,WUHU216HW,2013-06-02 06:16:00,
2013-06-02 02:22:00,70.5,65.0,29.87,NNW,338,0.0,0.0,83,0.00,,,0.00,WUHU216HW,2013-06-02 06:22:00,
2013-06-02 02:27:00,70.8,65.4,29.87,WNW,293,0.0,0.0,83,0.00,,,0.00,WUHU216HW,2013-06-02 06:27:00,
2013-06-02 02:32:00,71.4,65.6,29.87,North,0,0.0,0.0,82,0.00,,,0.00,WUHU216HW,2013-06-02 06:32:00,
2013-06-02 02:38:00,71.7,65.6,29.87,North,0,0.0,0.0,81,0.00,,,0.00,WUHU216HW,2013-06-02 06:38:00,
2013-06-02 02:43:00,72.1,65.6,29.87,NNW,338,0.0,0.0,80,0.00,,,0.00,WUHU216HW,2013-06-02 06:43:00,
2013-06-02 02:49:00,72.3,65.8,29.87,NNW,338,0.0,0.0,80,0.00,,,0.00,WUHU216HW,2013-06-02 06:49:00,
2013-06-02 02:54:00,72.5,66.0,29.87,NNW,338,0.0,0.0,80,0.00,,,0.00,WUHU216HW,2013-06-02 06:54:00,
2013-06-02 02:59:00,72.6,65.8,29.87,NNW,338,0.0,0.0,79,0.00,,,0.00,WUHU216HW,2013-06-02 06:59:00,
2013-06-02 03:05:00,72.8,66.0,29.87,NW,315,0.0,0.0,79,0.00,,,0.00,WUHU216HW,2013-06-02 07:05:00,
2013-06-02 03:11:00,73.0,65.8,29.87,WSW,248,0.0,0.0,78,0.00,,,0.00,WUHU216HW,2013-06-02 07:11:00,
2013-06-02 03:16:00,73.0,65.8,29.87,West,270,0.0,0.0,78,0.00,,,0.00,WUHU216HW,2013-06-02 07:16:00,
2013-06-02 03:22:00,73.2,65.9,29.87,North,0,0.0,0.0,78,0.00,,,0.00,WUHU216HW,2013-06-02 07:22:00,
2013-06-02 03:28:00,73.2,65.9,29.87,North,0,0.0,0.0,78,0.00,,,0.00,WUHU216HW,2013-06-02 07:28:00,
2013-06-02 03:33:00,73.2,65.6,29.87,NNE,23,0.0,0.0,77,0.00,,,0.00,WUHU216HW,2013-06-02 07:33:00,
2013-06-02 03:38:00,73.2,65.6,29.87,NNE,23,0.0,0.0,77,0.00,,,0.00,WUHU216HW,2013-06-02 07:38:00,
2013-06-02 03:43:00,73.2,65.6,29.88,WSW,248,0.0,0.0,77,0.00,,,0.00,WUHU216HW,2013-06-02 07:43:00,
2013-06-02 03:49:00,73.2,65.2,29.88,WNW,293,0.0,0.0,77,0.00,,,0.00,WUHU216HW,2013-06-02 07:49:00,
2013-06-02 03:55:00,73.2,65.2,29.87,NNW,338,0.0,0.0,76,0.00,,,0.00,WUHU216HW,2013-06-02 07:55:00,
2013-06-02 04:00:00,73.2,65.2,29.87,NNW,338,0.0,0.0,76,0.00,,,0.00,WUHU216HW,2013-06-02 08:00:00,
2013-06-02 04:06:00,73.2,65.2,29.87,NNW,338,0.0,0.0,76,0.00,,,0.00,WUHU216HW,2013-06-02 08:06:00,
2013-06-02 04:11:00,73.0,65.0,29.87,NNW,338,0.0,0.0,76,0.00,,,0.00,WUHU216HW,2013-06-02 08:11:00,
2013-06-02 04:17:00,72.8,65.2,29.87,NNW,338,0.0,0.0,77,0.00,,,0.00,WUHU216HW,2013-06-02 08:17:00,
2013-06-02 04:23:00,72.5,64.5,29.87,NNW,338,0.0,0.0,76,0.00,,,0.00,WUHU216HW,2013-06-02 08:23:00,
2013-06-02 04:29:00,72.1,64.5,29.86,NNW,338,0.0,0.0,77,0.00,,,0.00,WUHU216HW,2013-06-02 08:29:00,
2013-06-02 04:35:00,71.7,64.1,29.87,NNW,338,0.0,0.0,77,0.00,,,0.00,WUHU216HW,2013-06-02 08:35:00,
2013-06-02 04:41:00,71.4,64.1,29.87,NNW,338,0.0,0.0,78,0.00,,,0.00,WUHU216HW,2013-06-02 08:41:00,
2013-06-02 04:46:00,71.4,64.1,29.87,NNW,338,0.0,0.0,78,0.00,,,0.00,WUHU216HW,2013-06-02 08:46:00,
2013-06-02 04:51:00,71.2,64.0,29.87,NNW,338,0.0,0.0,78,0.00,,,0.00,WUHU216HW,2013-06-02 08:51:00,
2013-06-02 04:57:00,71.2,64.0,29.87,NNW,338,0.0,0.0,78,0.00,,,0.00,WUHU216HW,2013-06-02 08:57:00,
2013-06-02 05:02:00,70.8,64.0,29.87,NNW,338,0.0,0.0,79,0.00,,,0.00,WUHU216HW,2013-06-02 09:02:00,
2013-06-02 05:08:00,70.8,64.0,29.87,NNW,338,0.0,0.0,79,0.00,,,0.00,WUHU216HW,2013-06-02 09:08:00,
2013-06-02 05:14:00,70.7,63.8,29.87,West,270,0.0,0.0,79,0.00,,,0.00,WUHU216HW,2013-06-02 09:14:00,
2013-06-02 05:19:00,70.7,64.2,29.87,West,270,0.0,0.0,80,0.00,,,0.00,WUHU216HW,2013-06-02 09:19:00,
2013-06-02 05:25:00,70.5,64.0,29.87,West,270,0.0,0.0,80,0.00,,,0.00,WUHU216HW,2013-06-02 09:25:00,
2013-06-02 05:30:00,70.5,64.0,29.87,WSW,248,0.0,0.0,80,0.00,,,0.00,WUHU216HW,2013-06-02 09:30:00,
2013-06-02 05:35:00,70.5,64.0,29.88,WSW,248,0.0,0.0,80,0.00,,,0.00,WUHU216HW,2013-06-02 09:35:00,
2013-06-02 05:40:00,70.5,64.3,29.88,WSW,248,0.0,0.0,81,0.00,,,0.00,WUHU216HW,2013-06-02 09:40:00,
2013-06-02 05:46:00,70.5,64.3,29.87,West,270,0.0,0.0,81,0.00,,,0.00,WUHU216HW,2013-06-02 09:46:00,
2013-06-02 05:51:00,70.5,64.3,29.88,SW,225,0.0,0.0,81,0.00,,,0.00,WUHU216HW,2013-06-02 09:51:00,
2013-06-02 05:57:00,70.5,64.3,29.88,SW,225,0.0,0.0,81,0.00,,,0.00,WUHU216HW,2013-06-02 09:57:00,
2013-06-02 06:02:00,70.5,64.7,29.88,SW,225,0.0,0.0,82,0.00,,,0.00,WUHU216HW,2013-06-02 10:02:00,
2013-06-02 06:07:00,70.7,64.9,29.89,SW,225,0.0,0.0,82,0.00,,,0.00,WUHU216HW,2013-06-02 10:07:00,
2013-06-02 06:12:00,70.7,64.9,29.88,SSW,203,0.0,0.0,82,0.00,,,0.00,WUHU216HW,2013-06-02 10:12:00,
2013-06-02 06:17:00,70.7,64.9,29.88,SSW,203,0.0,0.0,82,0.00,,,0.00,WUHU216HW,2013-06-02 10:17:00,
2013-06-02 06:23:00,70.8,65.0,29.89,SSW,203,0.0,0.0,82,0.00,,,0.00,WUHU216HW,2013-06-02 10:23:00,
2013-06-02 06:28:00,71.2,65.4,29.89,West,270,0.0,0.0,82,0.00,,,0.00,WUHU216HW,2013-06-02 10:28:00,
2013-06-02 06:33:00,71.2,65.7,29.89,West,270,0.0,0.0,83,0.00,,,0.00,WUHU216HW,2013-06-02 10:33:00,
2013-06-02 06:38:00,71.0,65.6,29.89,SW,225,0.0,0.0,83,0.02,,,0.02,WUHU216HW,2013-06-02 10:38:00,
2013-06-02 06:44:00,70.5,65.0,29.89,NE,45,0.0,0.0,83,0.02,,,0.02,WUHU216HW,2013-06-02 10:44:00,
2013-06-02 06:49:00,70.3,65.2,29.89,West,270,0.0,0.0,84,0.02,,,0.02,WUHU216HW,2013-06-02 10:49:00,
2013-06-02 06:54:00,70.1,65.0,29.89,SSE,158,0.0,0.0,84,0.02,,,0.02,WUHU216HW,2013-06-02 10:54:00,
2013-06-02 07:04:00,69.6,64.8,29.90,ESE,113,0.0,0.0,85,0.04,,,0.04,WUHU216HW,2013-06-02 11:04:00,
2013-06-02 07:09:00,69.6,65.1,29.90,North,0,0.0,0.0,86,0.04,,,0.04,WUHU216HW,2013-06-02 11:09:00,
2013-06-02 07:15:00,69.6,65.1,29.90,WNW,293,0.0,0.0,86,0.04,,,0.04,WUHU216HW,2013-06-02 11:15:00,
2013-06-02 07:21:00,69.4,65.0,29.90,NNW,338,0.0,0.0,86,0.04,,,0.04,WUHU216HW,2013-06-02 11:21:00,
2013-06-02 07:27:00,69.4,65.3,29.90,West,270,0.0,0.0,87,0.04,,,0.04,WUHU216HW,2013-06-02 11:27:00,
2013-06-02 07:32:00,69.2,65.1,29.90,NNW,338,0.0,0.0,87,0.04,,,0.04,WUHU216HW,2013-06-02 11:32:00,
2013-06-02 07:42:00,69.6,65.8,29.91,NNW,338,0.0,0.0,88,0.02,,,0.04,WUHU216HW,2013-06-02 11:42:00,
2013-06-02 07:47:00,69.8,66.0,29.91,NNE,23,0.0,0.0,88,0.02,,,0.04,WUHU216HW,2013-06-02 11:47:00,
2013-06-02 07:53:00,69.9,66.2,29.90,NNE,23,0.0,0.0,88,0.02,,,0.04,WUHU216HW,2013-06-02 11:53:00,
2013-06-02 07:59:00,69.9,66.2,29.91,WNW,293,0.0,0.0,88,0.02,,,0.04,WUHU216HW,2013-06-02 11:59:00,
2013-06-02 08:05:00,70.1,66.4,29.91,NW,315,0.0,0.0,88,0.00,,,0.04,WUHU216HW,2013-06-02 12:05:00,
2013-06-02 08:10:00,70.1,66.4,29.90,NNW,338,0.0,0.0,88,0.00,,,0.04,WUHU216HW,2013-06-02 12:10:00,
2013-06-02 08:16:00,70.1,66.4,29.91,NNW,338,0.0,0.0,88,0.00,,,0.04,WUHU216HW,2013-06-02 12:16:00,
2013-06-02 08:22:00,69.9,66.2,29.91,NNE,23,0.0,0.0,88,0.00,,,0.04,WUHU216HW,2013-06-02 12:22:00,
2013-06-02 08:27:00,69.9,66.2,29.91,NNE,23,0.0,0.0,88,0.00,,,0.04,WUHU216HW,2013-06-02 12:27:00,
2013-06-02 08:33:00,69.9,66.5,29.92,NNE,23,0.0,0.0,89,0.00,,,0.04,WUHU216HW,2013-06-02 12:33:00,
2013-06-02 08:38:00,70.1,66.7,29.91,NNE,23,0.0,0.0,89,0.00,,,0.04,WUHU216HW,2013-06-02 12:38:00,
2013-06-02 08:43:00,70.7,67.2,29.91,NNE,23,0.0,0.0,89,0.00,,,0.04,WUHU216HW,2013-06-02 12:43:00,
2013-06-02 08:49:00,71.6,68.1,29.91,North,0,0.0,0.0,89,0.00,,,0.04,WUHU216HW,2013-06-02 12:49:00,
2013-06-02 08:54:00,71.9,68.2,29.91,NNE,23,0.0,0.0,88,0.00,,,0.04,WUHU216HW,2013-06-02 12:54:00,
2013-06-02 09:00:00,72.5,68.7,29.91,NNE,23,0.0,0.0,88,0.00,,,0.04,WUHU216HW,2013-06-02 13:00:00,
2013-06-02 09:06:00,72.6,68.5,29.91,NNE,23,0.0,3.3,87,0.00,,,0.04,WUHU216HW,2013-06-02 13:06:00,
2013-06-02 09:12:00,72.8,68.7,29.91,West,270,0.0,3.3,87,0.00,,,0.04,WUHU216HW,2013-06-02 13:12:00,
2013-06-02 09:17:00,72.6,68.2,29.91,SSW,203,0.0,0.0,86,0.00,,,0.04,WUHU216HW,2013-06-02 13:17:00,
2013-06-02 09:22:00,72.6,68.2,29.91,NNE,23,0.0,0.0,86,0.00,,,0.04,WUHU216HW,2013-06-02 13:22:00,
2013-06-02 09:28:00,72.5,68.0,29.91,NE,45,0.0,0.0,86,0.00,,,0.04,WUHU216HW,2013-06-02 13:28:00,
2013-06-02 09:33:00,72.3,67.8,29.91,NW,315,0.0,0.0,86,0.00,,,0.04,WUHU216HW,2013-06-02 13:33:00,
2013-06-02 09:38:00,72.3,67.8,29.91,SSE,158,0.0,0.0,86,0.00,,,0.04,WUHU216HW,2013-06-02 13:38:00,
2013-06-02 09:43:00,72.3,67.8,29.91,ESE,113,0.0,0.0,86,0.00,,,0.04,WUHU216HW,2013-06-02 13:43:00,
2013-06-02 09:49:00,73.0,68.6,29.91,SSW,203,0.0,0.0,86,0.00,,,0.04,WUHU216HW,2013-06-02 13:49:00,
2013-06-02 09:55:00,73.2,68.7,29.91,SW,225,0.0,0.0,86,0.00,,,0.04,WUHU216HW,2013-06-02 13:55:00,
2013-06-02 10:01:00,73.9,69.1,29.91,South,180,0.0,0.0,85,0.00,,,0.04,WUHU216HW,2013-06-02 14:01:00,
2013-06-02 10:07:00,74.3,69.5,29.91,South,180,0.0,0.8,85,0.00,,,0.04,WUHU216HW,2013-06-02 14:07:00,
2013-06-02 10:12:00,74.4,69.0,29.91,SSW,203,0.0,0.8,83,0.00,,,0.04,WUHU216HW,2013-06-02 14:12:00,
2013-06-02 10:17:00,74.8,69.0,29.91,WSW,248,0.0,0.0,82,0.00,,,0.04,WUHU216HW,2013-06-02 14:17:00,
2013-06-02 10:22:00,74.8,69.0,29.92,SW,225,0.0,0.0,82,0.00,,,0.04,WUHU216HW,2013-06-02 14:22:00,
2013-06-02 10:27:00,75.0,68.8,29.92,SSE,158,0.0,2.4,81,0.00,,,0.04,WUHU216HW,2013-06-02 14:27:00,
2013-06-02 10:33:00,75.9,70.0,29.92,WSW,248,0.0,2.4,82,0.00,,,0.04,WUHU216HW,2013-06-02 14:33:00,
2013-06-02 10:38:00,76.8,69.7,29.92,SW,225,0.0,0.0,79,0.00,,,0.04,WUHU216HW,2013-06-02 14:38:00,
2013-06-02 10:43:00,77.3,70.3,29.91,SSW,203,0.0,0.0,79,0.00,,,0.04,WUHU216HW,2013-06-02 14:43:00,
2013-06-02 10:49:00,77.9,69.6,29.92,West,270,0.0,3.1,76,0.00,,,0.04,WUHU216HW,2013-06-02 14:49:00,
2013-06-02 10:54:00,78.0,69.8,29.92,SSW,203,0.0,3.1,76,0.00,,,0.04,WUHU216HW,2013-06-02 14:54:00,
2013-06-02 10:59:00,78.0,68.6,29.92,WSW,248,0.0,0.0,73,0.00,,,0.04,WUHU216HW,2013-06-02 14:59:00,
2013-06-02 11:04:00,77.7,68.7,29.92,West,270,0.0,2.9,74,0.00,,,0.04,WUHU216HW,2013-06-02 15:04:00,
2013-06-02 11:09:00,77.7,68.7,29.92,SSW,203,4.2,4.2,74,0.00,,,0.04,WUHU216HW,2013-06-02 15:09:00,
2013-06-02 11:15:00,77.7,68.3,29.92,SSE,158,0.0,4.2,73,0.00,,,0.04,WUHU216HW,2013-06-02 15:15:00,
2013-06-02 11:21:00,77.7,68.3,29.92,SSW,203,0.0,0.0,73,0.00,,,0.04,WUHU216HW,2013-06-02 15:21:00,
2013-06-02 11:27:00,78.0,68.3,29.92,West,270,0.0,0.0,72,0.00,,,0.04,WUHU216HW,2013-06-02 15:27:00,
2013-06-02 11:32:00,77.9,68.1,29.93,SSW,203,0.0,0.0,72,0.00,,,0.04,WUHU216HW,2013-06-02 15:32:00,
2013-06-02 11:38:00,78.9,68.7,29.93,WNW,293,0.0,0.0,71,0.00,,,0.04,WUHU216HW,2013-06-02 15:38:00,
2013-06-02 11:43:00,79.5,68.9,29.93,WNW,293,0.0,0.0,70,0.00,,,0.04,WUHU216HW,2013-06-02 15:43:00,
2013-06-02 11:49:00,80.4,69.3,29.93,SSW,203,0.0,0.0,69,0.00,,,0.04,WUHU216HW,2013-06-02 15:49:00,
2013-06-02 11:55:00,81.1,69.5,29.93,SW,225,0.0,0.0,68,0.00,,,0.04,WUHU216HW,2013-06-02 15:55:00,
2013-06-02 12:00:00,81.6,68.7,29.93,WSW,248,0.0,0.0,65,0.00,,,0.04,WUHU216HW,2013-06-02 16:00:00,
2013-06-02 12:05:00,82.2,68.7,29.93,SW,225,0.0,0.0,64,0.00,,,0.04,WUHU216HW,2013-06-02 16:05:00,
2013-06-02 12:16:00,83.4,69.9,29.93,SSW,203,0.0,0.0,64,0.00,,,0.04,WUHU216HW,2013-06-02 16:16:00,
2013-06-02 12:22:00,84.3,69.9,29.93,WNW,293,0.0,0.0,62,0.00,,,0.04,WUHU216HW,2013-06-02 16:22:00,
2013-06-02 12:27:00,84.3,69.5,29.93,SSW,203,0.0,0.0,61,0.00,,,0.04,WUHU216HW,2013-06-02 16:27:00,
2013-06-02 12:33:00,84.2,68.9,29.93,SE,135,0.0,3.3,60,0.00,,,0.04,WUHU216HW,2013-06-02 16:33:00,
2013-06-02 12:39:00,83.6,68.3,29.93,SSW,203,2.9,3.3,60,0.00,,,0.04,WUHU216HW,2013-06-02 16:39:00,
2013-06-02 12:44:00,83.1,67.8,29.94,SW,225,0.0,2.9,60,0.00,,,0.04,WUHU216HW,2013-06-02 16:44:00,
2013-06-02 12:50:00,82.2,66.9,29.93,West,270,0.0,0.0,60,0.00,,,0.04,WUHU216HW,2013-06-02 16:50:00,
2013-06-02 12:55:00,82.4,67.2,29.93,NW,315,0.0,0.0,60,0.00,,,0.04,WUHU216HW,2013-06-02 16:55:00,
2013-06-02 13:01:00,82.7,67.4,29.93,West,270,0.0,0.0,60,0.00,,,0.04,WUHU216HW,2013-06-02 17:01:00,
2013-06-02 13:06:00,83.3,68.4,29.93,SW,225,0.0,0.0,61,0.00,,,0.04,WUHU216HW,2013-06-02 17:06:00,
2013-06-02 13:12:00,84.0,68.1,29.93,NW,315,0.0,0.0,59,0.00,,,0.04,WUHU216HW,2013-06-02 17:12:00,
2013-06-02 13:17:00,84.5,67.6,29.92,NW,315,0.0,0.0,57,0.00,,,0.04,WUHU216HW,2013-06-02 17:17:00,
2013-06-02 13:22:00,84.7,67.2,29.92,West,270,3.3,3.3,56,0.00,,,0.04,WUHU216HW,2013-06-02 17:22:00,
2013-06-02 13:27:00,84.5,67.1,29.92,SSW,203,0.0,3.3,57,0.00,,,0.04,WUHU216HW,2013-06-02 17:27:00,
2013-06-02 13:33:00,84.9,67.9,29.92,SSW,203,0.0,1.1,57,0.00,,,0.04,WUHU216HW,2013-06-02 17:33:00,
2013-06-02 13:38:00,85.6,68.1,29.92,WSW,248,2.0,2.0,56,0.00,,,0.04,WUHU216HW,2013-06-02 17:38:00,
2013-06-02 13:44:00,85.6,67.5,29.92,West,270,0.0,2.0,55,0.00,,,0.04,WUHU216HW,2013-06-02 17:44:00,
2013-06-02 13:49:00,86.1,68.0,29.92,WSW,248,0.0,2.0,55,0.00,,,0.04,WUHU216HW,2013-06-02 17:49:00,
2013-06-02 13:55:00,86.9,68.2,29.92,NNW,338,3.8,3.8,54,0.00,,,0.04,WUHU216HW,2013-06-02 17:55:00,
2013-06-02 14:01:00,86.5,67.3,29.92,SW,225,0.0,3.8,53,0.00,,,0.04,WUHU216HW,2013-06-02 18:01:00,
2013-06-02 14:06:00,86.0,67.3,29.91,WSW,248,0.0,3.8,54,0.00,,,0.04,WUHU216HW,2013-06-02 18:06:00,
2013-06-02 14:12:00,86.0,67.7,29.91,ESE,113,0.0,3.1,55,0.00,,,0.04,WUHU216HW,2013-06-02 18:12:00,
2013-06-02 14:17:00,86.1,67.5,29.91,NE,45,0.0,0.0,54,0.00,,,0.04,WUHU216HW,2013-06-02 18:17:00,
2013-06-02 14:22:00,86.1,67.0,29.91,WNW,293,0.0,0.0,53,0.00,,,0.04,WUHU216HW,2013-06-02 18:22:00,
2013-06-02 14:27:00,85.8,66.7,29.91,NW,315,0.0,0.0,53,0.00,,,0.04,WUHU216HW,2013-06-02 18:27:00,
2013-06-02 14:33:00,85.8,66.7,29.91,SSE,158,0.0,0.0,53,0.00,,,0.04,WUHU216HW,2013-06-02 18:33:00,
2013-06-02 14:38:00,86.5,67.8,29.90,WSW,248,0.0,0.0,54,0.00,,,0.04,WUHU216HW,2013-06-02 18:38:00,
2013-06-02 14:43:00,86.9,68.2,29.90,SW,225,0.0,0.0,54,0.00,,,0.04,WUHU216HW,2013-06-02 18:43:00,
2013-06-02 14:48:00,87.0,67.8,29.90,WSW,248,0.0,0.0,53,0.00,,,0.04,WUHU216HW,2013-06-02 18:48:00,
2013-06-02 14:53:00,87.4,67.6,29.91,West,270,0.0,0.0,52,0.00,,,0.04,WUHU216HW,2013-06-02 18:53:00,
2013-06-02 14:58:00,87.4,67.6,29.91,WSW,248,0.0,0.0,52,0.00,,,0.04,WUHU216HW,2013-06-02 18:58:00,
2013-06-02 15:04:00,87.8,68.5,29.91,SE,135,0.0,0.0,53,0.00,,,0.04,WUHU216HW,2013-06-02 19:04:00,
2013-06-02 15:10:00,87.6,67.2,29.91,WSW,248,0.0,0.0,51,0.00,,,0.04,WUHU216HW,2013-06-02 19:10:00,
2013-06-02 15:15:00,87.0,67.3,29.91,SSW,203,0.0,0.0,52,0.00,,,0.04,WUHU216HW,2013-06-02 19:15:00,
2013-06-02 15:20:00,87.0,67.3,29.91,SW,225,0.0,0.0,52,0.00,,,0.04,WUHU216HW,2013-06-02 19:20:00,
2013-06-02 15:26:00,86.7,66.9,29.91,SW,225,0.0,0.0,52,0.00,,,0.04,WUHU216HW,2013-06-02 19:26:00,
2013-06-02 15:31:00,86.5,66.8,29.91,NW,315,1.7,1.7,52,0.00,,,0.04,WUHU216HW,2013-06-02 19:31:00,
2013-06-02 15:37:00,86.3,66.6,29.91,West,270,0.0,1.7,52,0.00,,,0.04,WUHU216HW,2013-06-02 19:37:00,
2013-06-02 15:42:00,86.7,66.9,29.91,South,180,0.0,3.5,52,0.00,,,0.04,WUHU216HW,2013-06-02 19:42:00,
2013-06-02 15:47:00,86.7,66.9,29.91,WNW,293,0.0,3.5,52,0.00,,,0.04,WUHU216HW,2013-06-02 19:47:00,
2013-06-02 15:53:00,86.5,66.8,29.91,SW,225,0.0,0.0,52,0.00,,,0.04,WUHU216HW,2013-06-02 19:53:00,
2013-06-02 15:59:00,86.5,66.8,29.91,South,180,0.0,0.0,52,0.00,,,0.04,WUHU216HW,2013-06-02 19:59:00,
2013-06-02 16:04:00,86.5,67.3,29.91,South,180,0.0,0.0,53,0.00,,,0.04,WUHU216HW,2013-06-02 20:04:00,
2013-06-02 16:10:00,86.3,67.1,29.91,West,270,0.0,0.0,53,0.00,,,0.04,WUHU216HW,2013-06-02 20:10:00,
2013-06-02 16:15:00,86.0,66.8,29.91,West,270,0.0,0.0,53,0.00,,,0.04,WUHU216HW,2013-06-02 20:15:00,
2013-06-02 16:20:00,85.6,66.5,29.90,WSW,248,0.0,0.0,53,0.00,,,0.04,WUHU216HW,2013-06-02 20:20:00,
2013-06-02 16:26:00,84.9,65.8,29.90,WSW,248,0.0,0.0,53,0.00,,,0.04,WUHU216HW,2013-06-02 20:26:00,
2013-06-02 16:31:00,84.0,65.5,29.90,WNW,293,0.0,0.0,54,0.00,,,0.04,WUHU216HW,2013-06-02 20:31:00,
2013-06-02 16:37:00,83.3,65.3,29.90,WSW,248,0.0,0.0,55,0.00,,,0.04,WUHU216HW,2013-06-02 20:37:00,
2013-06-02 16:43:00,83.1,65.7,29.90,NW,315,0.0,0.0,56,0.00,,,0.04,WUHU216HW,2013-06-02 20:43:00,
2013-06-02 16:48:00,82.9,65.5,29.90,WNW,293,0.0,0.0,56,0.00,,,0.04,WUHU216HW,2013-06-02 20:48:00,
2013-06-02 16:53:00,82.7,65.8,29.90,SSW,203,0.0,0.0,57,0.00,,,0.04,WUHU216HW,2013-06-02 20:53:00,
2013-06-02 16:59:00,82.9,66.5,29.90,West,270,0.0,0.0,58,0.00,,,0.04,WUHU216HW,2013-06-02 20:59:00,
2013-06-02 17:04:00,82.7,66.4,29.90,West,270,0.0,0.0,58,0.00,,,0.04,WUHU216HW,2013-06-02 21:04:00,
2013-06-02 17:10:00,82.2,65.8,29.89,West,270,0.0,0.0,58,0.00,,,0.04,WUHU216HW,2013-06-02 21:10:00,
2013-06-02 17:15:00,82.0,65.7,29.89,SSW,203,0.0,0.0,58,0.00,,,0.04,WUHU216HW,2013-06-02 21:15:00,
2013-06-02 17:20:00,81.8,65.5,29.89,SSW,203,0.0,0.0,58,0.00,,,0.04,WUHU216HW,2013-06-02 21:20:00,
2013-06-02 17:26:00,81.3,65.0,29.89,SSW,203,0.0,0.0,58,0.00,,,0.04,WUHU216HW,2013-06-02 21:26:00,
2013-06-02 17:32:00,80.9,64.7,29.89,South,180,0.0,0.0,58,0.00,,,0.04,WUHU216HW,2013-06-02 21:32:00,
2013-06-02 17:37:00,80.7,65.1,29.89,South,180,0.0,0.0,59,0.00,,,0.04,WUHU216HW,2013-06-02 21:37:00,
2013-06-02 17:42:00,80.4,64.7,29.89,WSW,248,0.0,0.0,59,0.00,,,0.04,WUHU216HW,2013-06-02 21:42:00,
2013-06-02 17:48:00,80.2,64.6,29.89,WSW,248,0.0,0.0,59,0.00,,,0.04,WUHU216HW,2013-06-02 21:48:00,
2013-06-02 17:54:00,79.7,64.6,29.89,West,270,0.0,0.0,60,0.00,,,0.04,WUHU216HW,2013-06-02 21:54:00,
2013-06-02 17:59:00,79.3,64.1,29.89,SW,225,0.0,0.0,60,0.00,,,0.04,WUHU216HW,2013-06-02 21:59:00,
2013-06-02 18:05:00,79.1,64.6,29.89,SW,225,0.0,0.0,61,0.00,,,0.04,WUHU216HW,2013-06-02 22:05:00,
2013-06-02 18:11:00,79.3,64.7,29.89,WSW,248,0.0,0.0,61,0.00,,,0.04,WUHU216HW,2013-06-02 22:11:00,
2013-06-02 18:16:00,79.3,64.7,29.89,WSW,248,0.0,0.0,61,0.00,,,0.04,WUHU216HW,2013-06-02 22:16:00,
2013-06-02 18:21:00,79.5,65.3,29.88,WSW,248,0.0,0.0,62,0.00,,,0.04,WUHU216HW,2013-06-02 22:21:00,
2013-06-02 18:27:00,79.3,65.2,29.88,SW,225,0.0,0.0,62,0.00,,,0.04,WUHU216HW,2013-06-02 22:27:00,
2013-06-02 18:32:00,79.3,65.2,29.88,WSW,248,0.0,0.0,62,0.00,,,0.04,WUHU216HW,2013-06-02 22:32:00,
2013-06-02 18:38:00,78.9,64.8,29.88,WSW,248,0.0,0.0,62,0.00,,,0.04,WUHU216HW,2013-06-02 22:38:00,
2013-06-02 18:43:00,78.6,64.5,29.88,WSW,248,0.0,0.0,62,0.00,,,0.04,WUHU216HW,2013-06-02 22:43:00,
2013-06-02 18:49:00,78.6,65.4,29.89,SSW,203,0.0,0.0,64,0.00,,,0.04,WUHU216HW,2013-06-02 22:49:00,
2013-06-02 18:54:00,78.4,65.2,29.88,WSW,248,0.0,0.0,64,0.00,,,0.04,WUHU216HW,2013-06-02 22:54:00,
2013-06-02 19:00:00,78.0,64.8,29.88,WSW,248,0.0,0.0,64,0.00,,,0.04,WUHU216HW,2013-06-02 23:00:00,
2013-06-02 19:05:00,78.0,64.8,29.89,SW,225,0.0,0.0,64,0.00,,,0.04,WUHU216HW,2013-06-02 23:05:00,
2013-06-02 19:10:00,77.9,65.1,29.89,SW,225,0.0,0.0,65,0.00,,,0.04,WUHU216HW,2013-06-02 23:10:00,
2013-06-02 19:16:00,77.7,65.4,29.89,SW,225,0.0,0.0,66,0.00,,,0.04,WUHU216HW,2013-06-02 23:16:00,
2013-06-02 19:21:00,77.5,65.6,29.89,SSW,203,0.0,0.0,67,0.00,,,0.04,WUHU216HW,2013-06-02 23:21:00,
2013-06-02 19:26:00,77.5,65.6,29.89,SSW,203,0.0,0.0,67,0.00,,,0.04,WUHU216HW,2013-06-02 23:26:00,
2013-06-02 19:31:00,77.1,65.3,29.89,SSW,203,0.0,0.0,67,0.00,,,0.04,WUHU216HW,2013-06-02 23:31:00,
2013-06-02 19:37:00,77.0,65.2,29.89,SSW,203,0.0,0.0,67,0.00,,,0.04,WUHU216HW,2013-06-02 23:37:00,
2013-06-02 19:42:00,76.8,65.4,29.89,SSW,203,0.0,0.0,68,0.00,,,0.04,WUHU216HW,2013-06-02 23:42:00,
2013-06-02 19:48:00,76.6,65.3,29.90,SSW,203,0.0,0.0,68,0.00,,,0.04,WUHU216HW,2013-06-02 23:48:00,
2013-06-02 19:54:00,76.2,65.3,29.90,SSW,203,0.0,0.0,69,0.00,,,0.04,WUHU216HW,2013-06-02 23:54:00,
2013-06-02 20:00:00,76.2,65.8,29.90,SSW,203,0.0,0.0,70,0.00,,,0.04,WUHU216HW,2013-06-03 00:00:00,
2013-06-02 20:05:00,76.1,65.6,29.90,SSW,203,0.0,0.0,70,0.00,,,0.04,WUHU216HW,2013-06-03 00:05:00,
2013-06-02 20:11:00,76.1,65.6,29.90,SSW,203,0.0,0.0,70,0.00,,,0.04,WUHU216HW,2013-06-03 00:11:00,
2013-06-02 20:16:00,75.9,65.4,29.91,SSW,203,0.0,0.0,70,0.00,,,0.04,WUHU216HW,2013-06-03 00:16:00,
2013-06-02 20:22:00,75.7,64.8,29.90,West,270,0.0,0.0,69,0.00,,,0.04,WUHU216HW,2013-06-03 00:22:00,
2013-06-02 20:28:00,75.3,64.9,29.90,West,270,0.0,0.0,70,0.00,,,0.04,WUHU216HW,2013-06-03 00:28:00,
2013-06-02 20:34:00,75.0,64.1,29.90,West,270,0.0,0.0,69,0.00,,,0.04,WUHU216HW,2013-06-03 00:34:00,
2013-06-02 20:39:00,74.8,64.4,29.90,West,270,0.0,0.0,70,0.00,,,0.04,WUHU216HW,2013-06-03 00:39:00,
2013-06-02 20:45:00,74.3,63.9,29.91,West,270,0.0,0.0,70,0.00,,,0.04,WUHU216HW,2013-06-03 00:45:00,
2013-06-02 20:50:00,73.9,63.6,29.90,West,270,0.0,0.0,70,0.00,,,0.04,WUHU216HW,2013-06-03 00:50:00,
2013-06-02 20:56:00,73.5,63.6,29.91,West,270,0.0,0.0,71,0.00,,,0.04,WUHU216HW,2013-06-03 00:56:00,
2013-06-02 21:01:00,73.2,63.3,29.91,West,270,0.0,0.0,71,0.00,,,0.04,WUHU216HW,2013-06-03 01:01:00,
2013-06-02 21:07:00,72.8,62.9,29.91,West,270,0.0,0.0,71,0.00,,,0.04,WUHU216HW,2013-06-03 01:07:00,
2013-06-02 21:12:00,72.3,62.8,29.91,West,270,0.0,0.0,72,0.00,,,0.04,WUHU216HW,2013-06-03 01:12:00,
2013-06-02 21:17:00,72.1,62.6,29.91,West,270,0.0,0.0,72,0.00,,,0.04,WUHU216HW,2013-06-03 01:17:00,
2013-06-02 21:22:00,71.7,62.2,29.92,West,270,0.0,0.0,72,0.00,,,0.04,WUHU216HW,2013-06-03 01:22:00,
2013-06-02 21:27:00,71.4,61.9,29.91,West,270,0.0,0.0,72,0.00,,,0.04,WUHU216HW,2013-06-03 01:27:00,
2013-06-02 21:33:00,71.2,62.1,29.92,West,270,0.0,0.0,73,0.00,,,0.04,WUHU216HW,2013-06-03 01:33:00,
2013-06-02 21:39:00,70.8,61.7,29.92,West,270,0.0,0.0,73,0.00,,,0.04,WUHU216HW,2013-06-03 01:39:00,
2013-06-02 21:45:00,70.5,61.7,29.92,West,270,0.0,0.0,74,0.00,,,0.04,WUHU216HW,2013-06-03 01:45:00,
2013-06-02 21:51:00,70.3,61.9,29.92,West,270,0.0,0.0,75,0.00,,,0.04,WUHU216HW,2013-06-03 01:51:00,
2013-06-02 21:56:00,70.3,61.9,29.92,West,270,0.0,0.0,75,0.00,,,0.04,WUHU216HW,2013-06-03 01:56:00,
2013-06-02 22:02:00,70.3,62.3,29.92,West,270,0.0,0.0,76,0.00,,,0.04,WUHU216HW,2013-06-03 02:02:00,
2013-06-02 22:08:00,70.3,62.7,29.93,West,270,0.0,0.0,77,0.00,,,0.04,WUHU216HW,2013-06-03 02:08:00,
2013-06-02 22:13:00,70.5,63.2,29.92,West,270,0.0,0.0,78,0.00,,,0.04,WUHU216HW,2013-06-03 02:13:00,
2013-06-02 22:18:00,70.5,63.2,29.93,WNW,293,0.0,0.0,78,0.00,,,0.04,WUHU216HW,2013-06-03 02:18:00,
2013-06-02 22:23:00,70.5,63.2,29.93,WNW,293,0.0,0.0,78,0.00,,,0.04,WUHU216HW,2013-06-03 02:23:00,
2013-06-02 22:28:00,70.3,63.4,29.93,WNW,293,0.0,0.0,79,0.00,,,0.04,WUHU216HW,2013-06-03 02:28:00,
2013-06-02 22:34:00,70.3,63.4,29.93,WNW,293,0.0,0.0,79,0.00,,,0.04,WUHU216HW,2013-06-03 02:34:00,
2013-06-02 22:40:00,70.1,63.6,29.93,WNW,293,0.0,0.0,80,0.00,,,0.04,WUHU216HW,2013-06-03 02:40:00,
2013-06-02 22:45:00,70.1,63.6,29.93,WNW,293,0.0,0.0,80,0.00,,,0.04,WUHU216HW,2013-06-03 02:45:00,
2013-06-02 22:50:00,69.9,63.5,29.92,WNW,293,0.0,0.0,80,0.00,,,0.04,WUHU216HW,2013-06-03 02:50:00,
2013-06-02 22:56:00,69.8,63.3,29.93,WNW,293,0.0,0.0,80,0.00,,,0.04,WUHU216HW,2013-06-03 02:56:00,
2013-06-02 23:01:00,69.6,63.1,29.93,WNW,293,0.0,0.0,80,0.00,,,0.04,WUHU216HW,2013-06-03 03:01:00,
2013-06-02 23:07:00,69.4,62.9,29.93,WNW,293,0.0,0.0,80,0.00,,,0.04,WUHU216HW,2013-06-03 03:07:00,
2013-06-02 23:12:00,69.2,62.8,29.92,WNW,293,0.0,0.0,80,0.00,,,0.04,WUHU216HW,2013-06-03 03:12:00,
2013-06-02 23:17:00,69.0,62.6,29.93,WNW,293,0.0,0.0,80,0.00,,,0.04,WUHU216HW,2013-06-03 03:17:00,
2013-06-02 23:23:00,68.7,62.3,29.93,WNW,293,0.0,0.0,80,0.00,,,0.04,WUHU216HW,2013-06-03 03:23:00,
2013-06-02 23:29:00,68.5,62.1,29.92,WNW,293,0.0,0.0,80,0.00,,,0.04,WUHU216HW,2013-06-03 03:29:00,
2013-06-02 23:34:00,68.1,61.8,29.93,WNW,293,0.0,0.0,80,0.00,,,0.04,WUHU216HW,2013-06-03 03:34:00,
2013-06-02 23:40:00,67.8,61.8,29.93,WNW,293,0.0,0.0,81,0.00,,,0.04,WUHU216HW,2013-06-03 03:40:00,
2013-06-02 23:45:00,67.8,61.8,29.93,WNW,293,0.0,0.0,81,0.00,,,0.04,WUHU216HW,2013-06-03 03:45:00,
2013-06-02 23:51:00,67.8,61.8,29.93,WNW,293,0.0,0.0,81,0.00,,,0.04,WUHU216HW,2013-06-03 03:51:00,
2013-06-02 23:56:00,67.6,61.6,29.93,WNW,293,0.0,0.0,81,0.00,,,0.04,WUHU216HW,2013-06-03 03:56:00,